Historyczne dane pomiarowe

Dodano dane terminowe – wersja testowa.

Dane z okresu 1951-2019

Wersja bazy: 1.34 [2019-03-16, lista zmian], aktualizacja planowana na 2019-04-15

Dane meteo z obszaru Polski uzyskane na podstawie danych udostępnionych przez Instytut Meteorologii i Gospodarki Wodnej – Państwowy Instytut Badawczy.

 

Wybierz Datę:    

       

TemperaturaWilgotnośćZachmurzenieWiatrCiśnienieWidzialnośćZjawiska
 Data    tng td wb rh cc ccl cl cm ch dir g1 g2 mslp ppp      
1999-08-03 00:00:00 10.9--- 7.8 9.381wxwxwx2wx--1019.4 996.9 0.0---wx
1999-08-03 01:00:00 10.4--- 7.7 9.083wxwxwxwx1wx--1019.3 996.8----wx
1999-08-03 02:00:00 11.0--- 8.2 9.583wxwxwxwx1wx--1019.2 996.7----wx
1999-08-03 03:00:00 10.3--- 7.6 8.983wxwxwxwx1wx--1019.3 996.8----wx
1999-08-03 04:00:00 10.7--- 7.8 9.282wxwxwxwx1wx--1019.4 996.9----wx
1999-08-03 05:00:00 14.4--- 10.5 12.277wxwxwxwx3wx--1019.0 996.8----wx
1999-08-03 06:00:00 19.6--- 9.4 13.852wxwxwxwx3wx--1018.6 996.8 0.0---wx
1999-08-03 07:00:00 21.6--- 8.9 14.444wxwxwx2wx--1018.5 996.8----wx
1999-08-03 08:00:00 22.7--- 9.3 15.043wxwxwxwx3wx--1018.4 996.8----wx
1999-08-03 09:00:00 23.1--- 9.2 15.141wxwxwx3wx--1018.2 996.6----wx
1999-08-03 10:00:00 23.2--- 9.1 15.141wxwxwxwx2wx--1017.9 996.4----wx
1999-08-03 11:00:00 23.7--- 8.7 15.138wxwxwxwx2wx--1017.7 996.2----wx
1999-08-03 12:00:00 24.1--- 8.5 15.237wxwxwxwx2wx--1017.4 995.9 0.0---wx
1999-08-03 13:00:00 24.6--- 8.6 15.436wxwxwxwx2wx--1016.9 995.5----wx
1999-08-03 14:00:00 24.0--- 7.2 14.634wxwxwxwx2wx--1016.9 995.4----wx
1999-08-03 15:00:00 24.6--- 7.6 15.034wxwxwxwx2wx--1016.6 995.2----wx
1999-08-03 16:00:00 24.3--- 7.9 15.035wxwx2wx--1016.5 995.1----wx
1999-08-03 17:00:00 23.1--- 8.3 14.739wxwx2wx--1016.6 995.1----wx
1999-08-03 18:00:00 20.5--- 9.9 14.451wxwx1wx--1016.8 995.1 0.0---wx
1999-08-03 19:00:00 17.6--- 11.4 14.067wxwx1wx--1017.3 995.4----wx
1999-08-03 20:00:00 16.9--- 9.6 12.862wxwxwx1wx--1017.4 995.4----wx
1999-08-03 21:00:00 16.5--- 8.9 12.361wxwxwx2wx--1017.4 995.4----wx
1999-08-03 22:00:00 15.0--- 10.4 12.474wxwxwx1wx--1017.3 995.2----wx
1999-08-03 23:00:00 13.8--- 10.4 11.980wxwxwx0wx--1017.4 995.2----wx

 

Źródłem pochodzenia danych jest Instytut Meteorologii i Gospodarki Wodnej – Państwowy Instytut Badawczy. Dane Instytutu Meteorologii i Gospodarki Wodnej – Państwowego Instytutu Badawczego zostały przetworzone.

Dane źródłowe można odnaleźć na stronie https://dane.imgw.pl